sensor_id;sensor_type;location;lat;lon;timestamp;P1;durP1;ratioP1;P2;durP2;ratioP2
57828;SDS011;43657;52.698;6.314;2024-02-16T00:04:31;10.15;;;7.55;;
57828;SDS011;43657;52.698;6.314;2024-02-16T00:07:03;10.75;;;7.57;;
57828;SDS011;43657;52.698;6.314;2024-02-16T00:10:06;9.35;;;6.40;;
57828;SDS011;43657;52.698;6.314;2024-02-16T00:15:38;13.70;;;7.60;;
57828;SDS011;43657;52.698;6.314;2024-02-16T00:18:45;13.10;;;7.03;;
57828;SDS011;43657;52.698;6.314;2024-02-16T00:21:33;10.40;;;6.78;;
57828;SDS011;43657;52.698;6.314;2024-02-16T00:24:16;11.90;;;6.82;;
57828;SDS011;43657;52.698;6.314;2024-02-16T00:27:12;13.65;;;7.28;;
57828;SDS011;43657;52.698;6.314;2024-02-16T00:29:56;10.70;;;6.47;;
57828;SDS011;43657;52.698;6.314;2024-02-16T00:33:00;9.35;;;6.78;;
57828;SDS011;43657;52.698;6.314;2024-02-16T00:36:08;9.07;;;6.82;;
57828;SDS011;43657;52.698;6.314;2024-02-16T00:39:08;8.60;;;6.25;;
57828;SDS011;43657;52.698;6.314;2024-02-16T00:42:31;10.48;;;7.10;;
57828;SDS011;43657;52.698;6.314;2024-02-16T00:48:28;10.07;;;7.00;;
57828;SDS011;43657;52.698;6.314;2024-02-16T00:51:09;10.23;;;7.00;;
57828;SDS011;43657;52.698;6.314;2024-02-16T00:54:03;11.18;;;7.47;;
57828;SDS011;43657;52.698;6.314;2024-02-16T00:57:06;9.07;;;6.65;;
57828;SDS011;43657;52.698;6.314;2024-02-16T01:00:13;13.40;;;8.00;;
57828;SDS011;43657;52.698;6.314;2024-02-16T01:06:22;10.73;;;6.82;;
57828;SDS011;43657;52.698;6.314;2024-02-16T01:12:00;10.63;;;6.95;;
57828;SDS011;43657;52.698;6.314;2024-02-16T01:14:59;14.48;;;7.68;;
57828;SDS011;43657;52.698;6.314;2024-02-16T01:17:47;11.88;;;7.13;;
57828;SDS011;43657;52.698;6.314;2024-02-16T01:20:43;10.10;;;7.15;;
57828;SDS011;43657;52.698;6.314;2024-02-16T01:23:33;8.70;;;7.28;;
57828;SDS011;43657;52.698;6.314;2024-02-16T01:26:27;9.95;;;6.97;;
57828;SDS011;43657;52.698;6.314;2024-02-16T01:29:06;10.18;;;7.55;;
57828;SDS011;43657;52.698;6.314;2024-02-16T01:32:00;10.45;;;7.35;;
57828;SDS011;43657;52.698;6.314;2024-02-16T01:34:43;10.90;;;7.28;;
57828;SDS011;43657;52.698;6.314;2024-02-16T01:37:40;10.60;;;7.82;;
57828;SDS011;43657;52.698;6.314;2024-02-16T01:40:23;10.25;;;7.60;;
57828;SDS011;43657;52.698;6.314;2024-02-16T01:43:32;10.40;;;7.50;;
57828;SDS011;43657;52.698;6.314;2024-02-16T01:51:52;10.88;;;7.10;;
57828;SDS011;43657;52.698;6.314;2024-02-16T01:54:34;9.93;;;7.22;;
57828;SDS011;43657;52.698;6.314;2024-02-16T01:57:37;11.07;;;7.95;;
57828;SDS011;43657;52.698;6.314;2024-02-16T02:00:26;11.30;;;7.78;;
57828;SDS011;43657;52.698;6.314;2024-02-16T02:03:24;9.60;;;7.50;;
57828;SDS011;43657;52.698;6.314;2024-02-16T02:06:17;9.45;;;6.90;;
57828;SDS011;43657;52.698;6.314;2024-02-16T02:08:50;8.27;;;6.70;;
57828;SDS011;43657;52.698;6.314;2024-02-16T02:11:51;12.68;;;8.25;;
57828;SDS011;43657;52.698;6.314;2024-02-16T02:14:29;8.82;;;6.65;;
57828;SDS011;43657;52.698;6.314;2024-02-16T02:17:28;8.88;;;7.00;;
57828;SDS011;43657;52.698;6.314;2024-02-16T02:20:14;10.85;;;7.13;;
57828;SDS011;43657;52.698;6.314;2024-02-16T02:22:46;8.90;;;7.57;;
57828;SDS011;43657;52.698;6.314;2024-02-16T02:25:32;9.23;;;7.32;;
57828;SDS011;43657;52.698;6.314;2024-02-16T02:28:10;12.48;;;7.80;;
57828;SDS011;43657;52.698;6.314;2024-02-16T02:30:50;10.40;;;7.88;;
57828;SDS011;43657;52.698;6.314;2024-02-16T02:33:46;9.73;;;7.35;;
57828;SDS011;43657;52.698;6.314;2024-02-16T02:36:43;10.48;;;7.88;;
57828;SDS011;43657;52.698;6.314;2024-02-16T02:39:58;9.32;;;7.28;;
57828;SDS011;43657;52.698;6.314;2024-02-16T02:42:57;11.45;;;8.32;;
57828;SDS011;43657;52.698;6.314;2024-02-16T02:45:51;8.10;;;6.85;;
57828;SDS011;43657;52.698;6.314;2024-02-16T02:48:33;10.35;;;6.32;;
57828;SDS011;43657;52.698;6.314;2024-02-16T02:51:38;11.07;;;7.80;;
57828;SDS011;43657;52.698;6.314;2024-02-16T02:57:03;9.93;;;7.20;;
57828;SDS011;43657;52.698;6.314;2024-02-16T02:59:52;10.00;;;7.18;;
57828;SDS011;43657;52.698;6.314;2024-02-16T03:02:24;8.73;;;6.65;;
57828;SDS011;43657;52.698;6.314;2024-02-16T03:05:08;8.57;;;7.60;;
57828;SDS011;43657;52.698;6.314;2024-02-16T03:07:42;9.95;;;7.05;;
57828;SDS011;43657;52.698;6.314;2024-02-16T03:10:57;9.52;;;7.75;;
57828;SDS011;43657;52.698;6.314;2024-02-16T03:13:45;8.10;;;6.70;;
57828;SDS011;43657;52.698;6.314;2024-02-16T03:16:48;8.27;;;7.38;;
57828;SDS011;43657;52.698;6.314;2024-02-16T03:19:25;10.07;;;7.25;;
57828;SDS011;43657;52.698;6.314;2024-02-16T03:22:06;9.50;;;7.03;;
57828;SDS011;43657;52.698;6.314;2024-02-16T03:24:46;10.05;;;7.18;;
57828;SDS011;43657;52.698;6.314;2024-02-16T03:27:16;8.55;;;7.65;;
57828;SDS011;43657;52.698;6.314;2024-02-16T03:29:52;9.25;;;7.45;;
57828;SDS011;43657;52.698;6.314;2024-02-16T03:32:36;8.02;;;6.90;;
57828;SDS011;43657;52.698;6.314;2024-02-16T03:35:05;10.38;;;7.80;;
57828;SDS011;43657;52.698;6.314;2024-02-16T03:38:09;8.57;;;7.22;;
57828;SDS011;43657;52.698;6.314;2024-02-16T03:40:40;8.68;;;7.05;;
57828;SDS011;43657;52.698;6.314;2024-02-16T03:43:09;10.88;;;7.75;;
57828;SDS011;43657;52.698;6.314;2024-02-16T03:46:16;11.02;;;7.70;;
57828;SDS011;43657;52.698;6.314;2024-02-16T03:49:00;9.57;;;6.80;;
57828;SDS011;43657;52.698;6.314;2024-02-16T03:52:07;8.93;;;6.70;;
57828;SDS011;43657;52.698;6.314;2024-02-16T03:54:48;9.27;;;7.07;;
57828;SDS011;43657;52.698;6.314;2024-02-16T03:57:26;8.45;;;7.00;;
57828;SDS011;43657;52.698;6.314;2024-02-16T04:00:27;9.13;;;7.47;;
57828;SDS011;43657;52.698;6.314;2024-02-16T04:03:09;10.05;;;7.35;;
57828;SDS011;43657;52.698;6.314;2024-02-16T04:05:49;8.23;;;7.43;;
57828;SDS011;43657;52.698;6.314;2024-02-16T04:08:39;9.25;;;7.38;;
57828;SDS011;43657;52.698;6.314;2024-02-16T04:11:26;8.70;;;6.65;;
57828;SDS011;43657;52.698;6.314;2024-02-16T04:14:20;8.32;;;7.53;;
57828;SDS011;43657;52.698;6.314;2024-02-16T04:16:54;9.07;;;7.28;;
57828;SDS011;43657;52.698;6.314;2024-02-16T04:19:49;9.27;;;7.07;;
57828;SDS011;43657;52.698;6.314;2024-02-16T04:23:01;10.35;;;7.30;;
57828;SDS011;43657;52.698;6.314;2024-02-16T04:25:27;8.60;;;7.70;;
57828;SDS011;43657;52.698;6.314;2024-02-16T04:28:11;8.90;;;7.30;;
57828;SDS011;43657;52.698;6.314;2024-02-16T04:31:00;8.15;;;7.07;;
57828;SDS011;43657;52.698;6.314;2024-02-16T04:40:59;10.27;;;7.55;;
57828;SDS011;43657;52.698;6.314;2024-02-16T04:50:18;8.80;;;7.55;;
57828;SDS011;43657;52.698;6.314;2024-02-16T04:56:21;9.68;;;8.73;;
57828;SDS011;43657;52.698;6.314;2024-02-16T05:01:56;8.98;;;7.93;;
57828;SDS011;43657;52.698;6.314;2024-02-16T05:04:42;8.93;;;8.02;;
57828;SDS011;43657;52.698;6.314;2024-02-16T05:07:39;8.45;;;7.55;;
57828;SDS011;43657;52.698;6.314;2024-02-16T05:10:43;8.60;;;6.75;;
57828;SDS011;43657;52.698;6.314;2024-02-16T05:13:12;9.25;;;8.27;;
57828;SDS011;43657;52.698;6.314;2024-02-16T05:15:50;8.25;;;7.28;;
57828;SDS011;43657;52.698;6.314;2024-02-16T05:18:34;8.82;;;6.90;;
57828;SDS011;43657;52.698;6.314;2024-02-16T05:21:28;9.40;;;7.20;;
57828;SDS011;43657;52.698;6.314;2024-02-16T05:24:20;9.45;;;7.10;;
57828;SDS011;43657;52.698;6.314;2024-02-16T05:30:21;10.82;;;6.93;;
57828;SDS011;43657;52.698;6.314;2024-02-16T05:36:29;8.50;;;6.57;;
57828;SDS011;43657;52.698;6.314;2024-02-16T05:39:04;9.93;;;6.80;;
57828;SDS011;43657;52.698;6.314;2024-02-16T05:42:00;8.23;;;6.57;;
57828;SDS011;43657;52.698;6.314;2024-02-16T05:44:38;7.53;;;6.72;;
57828;SDS011;43657;52.698;6.314;2024-02-16T05:47:09;8.40;;;6.85;;
57828;SDS011;43657;52.698;6.314;2024-02-16T05:49:35;7.60;;;6.80;;
57828;SDS011;43657;52.698;6.314;2024-02-16T05:52:19;9.10;;;6.70;;
57828;SDS011;43657;52.698;6.314;2024-02-16T05:54:48;9.30;;;7.40;;
57828;SDS011;43657;52.698;6.314;2024-02-16T05:57:32;8.43;;;6.97;;
57828;SDS011;43657;52.698;6.314;2024-02-16T06:00:12;9.23;;;6.63;;
57828;SDS011;43657;52.698;6.314;2024-02-16T06:03:10;7.85;;;6.70;;
57828;SDS011;43657;52.698;6.314;2024-02-16T06:05:57;7.63;;;6.57;;
57828;SDS011;43657;52.698;6.314;2024-02-16T06:11:01;8.52;;;6.93;;
57828;SDS011;43657;52.698;6.314;2024-02-16T06:13:41;9.38;;;7.40;;
57828;SDS011;43657;52.698;6.314;2024-02-16T06:16:27;8.98;;;6.65;;
57828;SDS011;43657;52.698;6.314;2024-02-16T06:19:10;9.95;;;7.40;;
57828;SDS011;43657;52.698;6.314;2024-02-16T06:21:52;9.82;;;7.25;;
57828;SDS011;43657;52.698;6.314;2024-02-16T06:24:38;8.93;;;7.90;;
57828;SDS011;43657;52.698;6.314;2024-02-16T06:27:05;8.25;;;7.45;;
57828;SDS011;43657;52.698;6.314;2024-02-16T06:29:40;9.73;;;6.78;;
57828;SDS011;43657;52.698;6.314;2024-02-16T06:32:13;9.07;;;7.25;;
57828;SDS011;43657;52.698;6.314;2024-02-16T06:34:39;9.25;;;7.03;;
57828;SDS011;43657;52.698;6.314;2024-02-16T06:37:05;8.93;;;6.90;;
57828;SDS011;43657;52.698;6.314;2024-02-16T06:39:31;8.88;;;7.82;;
57828;SDS011;43657;52.698;6.314;2024-02-16T06:41:57;8.07;;;7.25;;
57828;SDS011;43657;52.698;6.314;2024-02-16T06:44:23;10.10;;;7.50;;
57828;SDS011;43657;52.698;6.314;2024-02-16T06:46:48;10.57;;;8.27;;
57828;SDS011;43657;52.698;6.314;2024-02-16T06:49:17;8.93;;;7.70;;
57828;SDS011;43657;52.698;6.314;2024-02-16T06:51:45;8.07;;;7.28;;
57828;SDS011;43657;52.698;6.314;2024-02-16T06:54:20;9.13;;;7.18;;
57828;SDS011;43657;52.698;6.314;2024-02-16T06:57:15;7.78;;;6.97;;
57828;SDS011;43657;52.698;6.314;2024-02-16T06:59:41;8.63;;;6.60;;
57828;SDS011;43657;52.698;6.314;2024-02-16T07:02:07;8.07;;;6.35;;
57828;SDS011;43657;52.698;6.314;2024-02-16T07:04:36;8.43;;;6.75;;
57828;SDS011;43657;52.698;6.314;2024-02-16T07:07:04;7.53;;;6.63;;
57828;SDS011;43657;52.698;6.314;2024-02-16T07:09:35;9.25;;;6.70;;
57828;SDS011;43657;52.698;6.314;2024-02-16T07:12:04;8.15;;;7.05;;
57828;SDS011;43657;52.698;6.314;2024-02-16T07:14:32;6.90;;;6.20;;
57828;SDS011;43657;52.698;6.314;2024-02-16T07:17:03;8.60;;;5.95;;
57828;SDS011;43657;52.698;6.314;2024-02-16T07:19:32;7.68;;;6.20;;
57828;SDS011;43657;52.698;6.314;2024-02-16T07:21:58;7.78;;;6.20;;
57828;SDS011;43657;52.698;6.314;2024-02-16T07:24:24;8.13;;;6.28;;
57828;SDS011;43657;52.698;6.314;2024-02-16T07:26:49;7.43;;;6.10;;
57828;SDS011;43657;52.698;6.314;2024-02-16T07:29:15;9.20;;;6.07;;
57828;SDS011;43657;52.698;6.314;2024-02-16T07:31:41;8.35;;;6.55;;
57828;SDS011;43657;52.698;6.314;2024-02-16T07:34:08;8.77;;;6.07;;
57828;SDS011;43657;52.698;6.314;2024-02-16T07:36:52;8.48;;;6.07;;
57828;SDS011;43657;52.698;6.314;2024-02-16T07:39:46;6.75;;;5.63;;
57828;SDS011;43657;52.698;6.314;2024-02-16T07:42:30;9.38;;;6.07;;
57828;SDS011;43657;52.698;6.314;2024-02-16T07:45:03;7.45;;;5.70;;
57828;SDS011;43657;52.698;6.314;2024-02-16T07:47:32;7.40;;;5.75;;
57828;SDS011;43657;52.698;6.314;2024-02-16T07:57:30;7.35;;;6.05;;
57828;SDS011;43657;52.698;6.314;2024-02-16T08:04:21;7.13;;;5.47;;
57828;SDS011;43657;52.698;6.314;2024-02-16T08:07:42;8.80;;;6.03;;
57828;SDS011;43657;52.698;6.314;2024-02-16T08:10:40;6.75;;;5.97;;
57828;SDS011;43657;52.698;6.314;2024-02-16T08:14:55;6.07;;;5.20;;
57828;SDS011;43657;52.698;6.314;2024-02-16T08:25:43;8.55;;;6.25;;
57828;SDS011;43657;52.698;6.314;2024-02-16T08:29:25;7.13;;;5.80;;
57828;SDS011;43657;52.698;6.314;2024-02-16T08:43:09;7.70;;;6.18;;
57828;SDS011;43657;52.698;6.314;2024-02-16T08:49:23;8.07;;;5.50;;
57828;SDS011;43657;52.698;6.314;2024-02-16T09:02:09;9.27;;;6.53;;
57828;SDS011;43657;52.698;6.314;2024-02-16T09:09:16;8.63;;;6.82;;
57828;SDS011;43657;52.698;6.314;2024-02-16T09:11:53;7.50;;;6.63;;
57828;SDS011;43657;52.698;6.314;2024-02-16T09:15:08;8.00;;;6.60;;
57828;SDS011;43657;52.698;6.314;2024-02-16T09:18:08;8.20;;;6.93;;
57828;SDS011;43657;52.698;6.314;2024-02-16T09:21:00;8.00;;;6.63;;
57828;SDS011;43657;52.698;6.314;2024-02-16T09:23:58;10.15;;;6.90;;
57828;SDS011;43657;52.698;6.314;2024-02-16T09:27:08;8.43;;;7.28;;
57828;SDS011;43657;52.698;6.314;2024-02-16T09:30:12;9.82;;;6.68;;
57828;SDS011;43657;52.698;6.314;2024-02-16T09:33:46;8.90;;;6.45;;
57828;SDS011;43657;52.698;6.314;2024-02-16T09:43:42;9.00;;;7.00;;
57828;SDS011;43657;52.698;6.314;2024-02-16T09:53:40;9.43;;;7.30;;
57828;SDS011;43657;52.698;6.314;2024-02-16T09:57:08;9.40;;;7.00;;
57828;SDS011;43657;52.698;6.314;2024-02-16T10:03:20;10.05;;;7.75;;
57828;SDS011;43657;52.698;6.314;2024-02-16T10:13:24;7.82;;;7.03;;
57828;SDS011;43657;52.698;6.314;2024-02-16T10:19:14;9.75;;;8.40;;
57828;SDS011;43657;52.698;6.314;2024-02-16T10:22:34;9.13;;;7.60;;
57828;SDS011;43657;52.698;6.314;2024-02-16T10:25:40;9.23;;;7.72;;
57828;SDS011;43657;52.698;6.314;2024-02-16T10:28:24;10.20;;;8.25;;
57828;SDS011;43657;52.698;6.314;2024-02-16T10:31:23;10.50;;;8.95;;
57828;SDS011;43657;52.698;6.314;2024-02-16T10:34:26;12.93;;;9.27;;
57828;SDS011;43657;52.698;6.314;2024-02-16T10:48:05;11.63;;;10.50;;
57828;SDS011;43657;52.698;6.314;2024-02-16T10:50:52;12.13;;;10.85;;
57828;SDS011;43657;52.698;6.314;2024-02-16T10:56:53;11.15;;;9.98;;
57828;SDS011;43657;52.698;6.314;2024-02-16T10:59:55;11.30;;;10.27;;
57828;SDS011;43657;52.698;6.314;2024-02-16T11:08:26;15.48;;;11.60;;
57828;SDS011;43657;52.698;6.314;2024-02-16T11:11:28;13.10;;;11.75;;
57828;SDS011;43657;52.698;6.314;2024-02-16T11:15:23;13.55;;;11.55;;
57828;SDS011;43657;52.698;6.314;2024-02-16T11:22:43;17.05;;;15.15;;
57828;SDS011;43657;52.698;6.314;2024-02-16T11:25:59;17.17;;;15.45;;
57828;SDS011;43657;52.698;6.314;2024-02-16T11:32:11;22.27;;;20.10;;
57828;SDS011;43657;52.698;6.314;2024-02-16T11:35:14;24.73;;;22.08;;
57828;SDS011;43657;52.698;6.314;2024-02-16T11:38:46;28.42;;;25.77;;
57828;SDS011;43657;52.698;6.314;2024-02-16T11:41:43;35.75;;;32.17;;
57828;SDS011;43657;52.698;6.314;2024-02-16T11:44:56;36.28;;;32.65;;
57828;SDS011;43657;52.698;6.314;2024-02-16T11:48:29;40.83;;;36.80;;
57828;SDS011;43657;52.698;6.314;2024-02-16T11:54:25;43.92;;;38.97;;
57828;SDS011;43657;52.698;6.314;2024-02-16T11:59:59;55.63;;;48.40;;
57828;SDS011;43657;52.698;6.314;2024-02-16T12:06:20;49.38;;;40.00;;
57828;SDS011;43657;52.698;6.314;2024-02-16T12:09:23;44.10;;;34.92;;
57828;SDS011;43657;52.698;6.314;2024-02-16T12:15:49;37.00;;;29.73;;
57828;SDS011;43657;52.698;6.314;2024-02-16T12:18:39;37.08;;;30.13;;
57828;SDS011;43657;52.698;6.314;2024-02-16T12:21:17;37.28;;;29.88;;
57828;SDS011;43657;52.698;6.314;2024-02-16T12:24:27;36.25;;;27.13;;
57828;SDS011;43657;52.698;6.314;2024-02-16T12:28:11;35.40;;;26.73;;
57828;SDS011;43657;52.698;6.314;2024-02-16T12:31:32;32.70;;;24.88;;
57828;SDS011;43657;52.698;6.314;2024-02-16T12:37:48;40.42;;;27.42;;
57828;SDS011;43657;52.698;6.314;2024-02-16T12:43:54;29.23;;;22.13;;
57828;SDS011;43657;52.698;6.314;2024-02-16T12:47:01;32.75;;;23.27;;
57828;SDS011;43657;52.698;6.314;2024-02-16T12:50:24;33.38;;;24.83;;
57828;SDS011;43657;52.698;6.314;2024-02-16T12:53:23;27.02;;;22.20;;
57828;SDS011;43657;52.698;6.314;2024-02-16T12:56:40;26.48;;;21.35;;
57828;SDS011;43657;52.698;6.314;2024-02-16T12:59:25;26.52;;;21.67;;
57828;SDS011;43657;52.698;6.314;2024-02-16T13:02:10;26.85;;;22.77;;
57828;SDS011;43657;52.698;6.314;2024-02-16T13:05:03;26.27;;;23.40;;
57828;SDS011;43657;52.698;6.314;2024-02-16T13:07:53;28.63;;;23.17;;
57828;SDS011;43657;52.698;6.314;2024-02-16T13:27:35;16.23;;;14.48;;
57828;SDS011;43657;52.698;6.314;2024-02-16T13:34:30;13.52;;;12.20;;
57828;SDS011;43657;52.698;6.314;2024-02-16T13:37:56;14.85;;;13.27;;
57828;SDS011;43657;52.698;6.314;2024-02-16T13:41:10;14.50;;;13.00;;
57828;SDS011;43657;52.698;6.314;2024-02-16T13:50:50;11.45;;;9.93;;
57828;SDS011;43657;52.698;6.314;2024-02-16T13:53:43;13.98;;;12.57;;
57828;SDS011;43657;52.698;6.314;2024-02-16T13:56:47;13.50;;;12.10;;
57828;SDS011;43657;52.698;6.314;2024-02-16T14:03:04;11.55;;;10.20;;
57828;SDS011;43657;52.698;6.314;2024-02-16T14:06:43;14.18;;;12.75;;
57828;SDS011;43657;52.698;6.314;2024-02-16T14:09:26;13.18;;;11.77;;
57828;SDS011;43657;52.698;6.314;2024-02-16T14:12:40;14.27;;;12.88;;
57828;SDS011;43657;52.698;6.314;2024-02-16T14:15:55;13.85;;;12.45;;
57828;SDS011;43657;52.698;6.314;2024-02-16T14:25:07;14.68;;;12.85;;
57828;SDS011;43657;52.698;6.314;2024-02-16T14:28:41;9.27;;;8.45;;
57828;SDS011;43657;52.698;6.314;2024-02-16T14:32:06;8.55;;;7.72;;
57828;SDS011;43657;52.698;6.314;2024-02-16T14:34:56;7.82;;;7.10;;
57828;SDS011;43657;52.698;6.314;2024-02-16T14:40:21;9.27;;;8.35;;
57828;SDS011;43657;52.698;6.314;2024-02-16T14:43:37;8.07;;;7.28;;
57828;SDS011;43657;52.698;6.314;2024-02-16T14:46:49;9.13;;;8.27;;
57828;SDS011;43657;52.698;6.314;2024-02-16T14:49:49;8.52;;;7.72;;
57828;SDS011;43657;52.698;6.314;2024-02-16T14:52:39;10.15;;;8.60;;
57828;SDS011;43657;52.698;6.314;2024-02-16T14:55:30;10.02;;;9.13;;
57828;SDS011;43657;52.698;6.314;2024-02-16T15:01:05;15.45;;;10.43;;
57828;SDS011;43657;52.698;6.314;2024-02-16T15:03:55;12.27;;;10.52;;
57828;SDS011;43657;52.698;6.314;2024-02-16T15:07:01;13.73;;;10.75;;
57828;SDS011;43657;52.698;6.314;2024-02-16T15:09:51;16.63;;;12.75;;
57828;SDS011;43657;52.698;6.314;2024-02-16T15:12:28;17.90;;;13.98;;
57828;SDS011;43657;52.698;6.314;2024-02-16T15:15:20;15.43;;;13.00;;
57828;SDS011;43657;52.698;6.314;2024-02-16T15:18:08;18.75;;;14.95;;
57828;SDS011;43657;52.698;6.314;2024-02-16T15:20:40;21.05;;;15.05;;
57828;SDS011;43657;52.698;6.314;2024-02-16T15:23:17;17.38;;;14.57;;
57828;SDS011;43657;52.698;6.314;2024-02-16T15:25:54;16.90;;;13.27;;
57828;SDS011;43657;52.698;6.314;2024-02-16T15:31:49;18.60;;;14.38;;
57828;SDS011;43657;52.698;6.314;2024-02-16T15:34:29;18.73;;;13.95;;
57828;SDS011;43657;52.698;6.314;2024-02-16T15:43:47;15.52;;;12.00;;
57828;SDS011;43657;52.698;6.314;2024-02-16T15:46:48;13.82;;;11.15;;
57828;SDS011;43657;52.698;6.314;2024-02-16T15:49:14;16.27;;;13.02;;
57828;SDS011;43657;52.698;6.314;2024-02-16T15:51:42;15.80;;;12.35;;
57828;SDS011;43657;52.698;6.314;2024-02-16T15:54:54;16.35;;;12.73;;
57828;SDS011;43657;52.698;6.314;2024-02-16T15:57:27;21.00;;;13.80;;
57828;SDS011;43657;52.698;6.314;2024-02-16T16:00:31;18.10;;;14.05;;
57828;SDS011;43657;52.698;6.314;2024-02-16T16:03:06;14.67;;;13.13;;
57828;SDS011;43657;52.698;6.314;2024-02-16T16:10:14;17.17;;;14.38;;
57828;SDS011;43657;52.698;6.314;2024-02-16T16:13:14;18.88;;;15.00;;
57828;SDS011;43657;52.698;6.314;2024-02-16T16:16:08;16.98;;;14.38;;
57828;SDS011;43657;52.698;6.314;2024-02-16T16:19:03;18.10;;;14.98;;
57828;SDS011;43657;52.698;6.314;2024-02-16T16:22:21;15.60;;;13.65;;
57828;SDS011;43657;52.698;6.314;2024-02-16T16:24:56;15.57;;;13.90;;
57828;SDS011;43657;52.698;6.314;2024-02-16T16:27:57;16.90;;;14.60;;
57828;SDS011;43657;52.698;6.314;2024-02-16T16:30:54;17.27;;;14.90;;
57828;SDS011;43657;52.698;6.314;2024-02-16T16:33:47;17.52;;;15.82;;
57828;SDS011;43657;52.698;6.314;2024-02-16T16:36:40;19.88;;;17.08;;
57828;SDS011;43657;52.698;6.314;2024-02-16T16:39:09;18.88;;;16.98;;
57828;SDS011;43657;52.698;6.314;2024-02-16T16:45:06;23.25;;;20.77;;
57828;SDS011;43657;52.698;6.314;2024-02-16T16:48:14;23.90;;;21.50;;
57828;SDS011;43657;52.698;6.314;2024-02-16T16:54:06;22.20;;;20.15;;
57828;SDS011;43657;52.698;6.314;2024-02-16T16:57:22;24.10;;;21.77;;
57828;SDS011;43657;52.698;6.314;2024-02-16T17:00:16;23.90;;;21.65;;
57828;SDS011;43657;52.698;6.314;2024-02-16T17:02:51;24.20;;;21.77;;
57828;SDS011;43657;52.698;6.314;2024-02-16T17:18:44;29.55;;;26.60;;
57828;SDS011;43657;52.698;6.314;2024-02-16T17:21:26;30.55;;;27.67;;
57828;SDS011;43657;52.698;6.314;2024-02-16T17:23:59;31.17;;;27.98;;
57828;SDS011;43657;52.698;6.314;2024-02-16T17:28:53;29.00;;;26.10;;
57828;SDS011;43657;52.698;6.314;2024-02-16T17:31:29;32.53;;;29.23;;
57828;SDS011;43657;52.698;6.314;2024-02-16T17:33:56;35.38;;;31.52;;
57828;SDS011;43657;52.698;6.314;2024-02-16T17:36:24;37.22;;;30.80;;
57828;SDS011;43657;52.698;6.314;2024-02-16T17:38:53;37.25;;;31.95;;
57828;SDS011;43657;52.698;6.314;2024-02-16T17:41:28;36.05;;;32.22;;
57828;SDS011;43657;52.698;6.314;2024-02-16T17:43:58;38.53;;;34.05;;
57828;SDS011;43657;52.698;6.314;2024-02-16T17:46:24;46.45;;;37.22;;
57828;SDS011;43657;52.698;6.314;2024-02-16T17:48:50;44.42;;;35.65;;
57828;SDS011;43657;52.698;6.314;2024-02-16T17:51:16;44.53;;;36.63;;
57828;SDS011;43657;52.698;6.314;2024-02-16T17:53:45;50.28;;;38.80;;
57828;SDS011;43657;52.698;6.314;2024-02-16T17:56:13;58.15;;;40.38;;
57828;SDS011;43657;52.698;6.314;2024-02-16T17:58:39;54.58;;;41.28;;
57828;SDS011;43657;52.698;6.314;2024-02-16T18:01:05;58.58;;;43.45;;
57828;SDS011;43657;52.698;6.314;2024-02-16T18:03:30;56.90;;;41.78;;
57828;SDS011;43657;52.698;6.314;2024-02-16T18:05:56;58.85;;;43.90;;
57828;SDS011;43657;52.698;6.314;2024-02-16T18:08:23;61.78;;;45.00;;
57828;SDS011;43657;52.698;6.314;2024-02-16T18:10:49;63.45;;;46.33;;
57828;SDS011;43657;52.698;6.314;2024-02-16T18:13:15;60.13;;;45.10;;
57828;SDS011;43657;52.698;6.314;2024-02-16T18:15:45;60.15;;;43.90;;
57828;SDS011;43657;52.698;6.314;2024-02-16T18:18:11;65.90;;;46.90;;
57828;SDS011;43657;52.698;6.314;2024-02-16T18:20:37;60.17;;;46.25;;
57828;SDS011;43657;52.698;6.314;2024-02-16T18:23:02;61.42;;;45.85;;
57828;SDS011;43657;52.698;6.314;2024-02-16T18:25:28;62.28;;;46.83;;
57828;SDS011;43657;52.698;6.314;2024-02-16T18:27:54;60.47;;;46.03;;
57828;SDS011;43657;52.698;6.314;2024-02-16T18:30:21;55.33;;;44.88;;
57828;SDS011;43657;52.698;6.314;2024-02-16T18:32:47;64.40;;;46.38;;
57828;SDS011;43657;52.698;6.314;2024-02-16T18:35:13;68.75;;;48.30;;
57828;SDS011;43657;52.698;6.314;2024-02-16T18:37:39;62.63;;;46.97;;
57828;SDS011;43657;52.698;6.314;2024-02-16T18:40:05;64.53;;;49.45;;
57828;SDS011;43657;52.698;6.314;2024-02-16T18:42:33;60.47;;;46.85;;
57828;SDS011;43657;52.698;6.314;2024-02-16T18:45:00;64.07;;;47.63;;
57828;SDS011;43657;52.698;6.314;2024-02-16T18:47:27;61.50;;;46.72;;
57828;SDS011;43657;52.698;6.314;2024-02-16T18:49:54;62.58;;;46.60;;
57828;SDS011;43657;52.698;6.314;2024-02-16T18:52:19;59.30;;;47.35;;
57828;SDS011;43657;52.698;6.314;2024-02-16T18:54:45;56.35;;;45.17;;
57828;SDS011;43657;52.698;6.314;2024-02-16T18:57:11;53.92;;;43.58;;
57828;SDS011;43657;52.698;6.314;2024-02-16T18:59:37;60.05;;;45.00;;
57828;SDS011;43657;52.698;6.314;2024-02-16T19:02:02;55.20;;;43.63;;
57828;SDS011;43657;52.698;6.314;2024-02-16T19:04:28;55.28;;;43.58;;
57828;SDS011;43657;52.698;6.314;2024-02-16T19:06:54;58.08;;;43.65;;
57828;SDS011;43657;52.698;6.314;2024-02-16T19:09:20;58.92;;;44.22;;
57828;SDS011;43657;52.698;6.314;2024-02-16T19:11:45;57.70;;;43.75;;
57828;SDS011;43657;52.698;6.314;2024-02-16T19:14:11;62.22;;;44.25;;
57828;SDS011;43657;52.698;6.314;2024-02-16T19:16:37;57.80;;;42.88;;
57828;SDS011;43657;52.698;6.314;2024-02-16T19:19:02;61.53;;;42.55;;
57828;SDS011;43657;52.698;6.314;2024-02-16T19:21:28;61.42;;;43.08;;
57828;SDS011;43657;52.698;6.314;2024-02-16T19:23:57;61.80;;;42.00;;
57828;SDS011;43657;52.698;6.314;2024-02-16T19:26:22;58.83;;;40.70;;
57828;SDS011;43657;52.698;6.314;2024-02-16T19:28:50;59.88;;;40.50;;
57828;SDS011;43657;52.698;6.314;2024-02-16T19:31:16;61.28;;;41.85;;
57828;SDS011;43657;52.698;6.314;2024-02-16T19:33:41;56.15;;;40.80;;
57828;SDS011;43657;52.698;6.314;2024-02-16T19:36:07;56.65;;;40.78;;
57828;SDS011;43657;52.698;6.314;2024-02-16T19:38:34;59.08;;;41.05;;
57828;SDS011;43657;52.698;6.314;2024-02-16T19:41:01;52.42;;;39.72;;
57828;SDS011;43657;52.698;6.314;2024-02-16T19:43:27;51.33;;;38.33;;
57828;SDS011;43657;52.698;6.314;2024-02-16T19:45:53;61.65;;;41.25;;
57828;SDS011;43657;52.698;6.314;2024-02-16T19:48:19;59.47;;;41.53;;
57828;SDS011;43657;52.698;6.314;2024-02-16T19:50:45;56.47;;;39.53;;
57828;SDS011;43657;52.698;6.314;2024-02-16T19:53:14;46.38;;;35.55;;
57828;SDS011;43657;52.698;6.314;2024-02-16T19:55:40;48.03;;;35.50;;
57828;SDS011;43657;52.698;6.314;2024-02-16T19:58:06;48.47;;;35.95;;
57828;SDS011;43657;52.698;6.314;2024-02-16T20:00:31;54.10;;;36.00;;
57828;SDS011;43657;52.698;6.314;2024-02-16T20:02:59;47.70;;;35.40;;
57828;SDS011;43657;52.698;6.314;2024-02-16T20:05:25;39.78;;;32.42;;
57828;SDS011;43657;52.698;6.314;2024-02-16T20:07:51;40.85;;;31.58;;
57828;SDS011;43657;52.698;6.314;2024-02-16T20:10:17;42.47;;;32.85;;
57828;SDS011;43657;52.698;6.314;2024-02-16T20:12:44;34.90;;;29.15;;
57828;SDS011;43657;52.698;6.314;2024-02-16T20:15:12;38.50;;;31.42;;
57828;SDS011;43657;52.698;6.314;2024-02-16T20:17:38;36.60;;;29.35;;
57828;SDS011;43657;52.698;6.314;2024-02-16T20:20:03;38.22;;;30.80;;
57828;SDS011;43657;52.698;6.314;2024-02-16T20:22:33;36.92;;;28.48;;
57828;SDS011;43657;52.698;6.314;2024-02-16T20:24:59;32.78;;;28.58;;
57828;SDS011;43657;52.698;6.314;2024-02-16T20:27:25;38.00;;;31.05;;
57828;SDS011;43657;52.698;6.314;2024-02-16T20:29:51;34.97;;;30.30;;
57828;SDS011;43657;52.698;6.314;2024-02-16T20:32:17;39.70;;;31.30;;
57828;SDS011;43657;52.698;6.314;2024-02-16T20:34:43;40.95;;;32.97;;